Time;durP1;ratioP1;P1;durP2;ratioP2;P2;SDS_P1;SDS_P2;PMS_P1;PMS_P2;Temp;Humidity;BMP_temperature;BMP_pressure;BME280_temperature;BME280_humidity;BME280_pressure;Samples;Min_cycle;Max_cycle;Signal;HPM_P1;HPM_P2
2021/03/08 00:01:04;;;;;;;12.18;7.45;;;10.20;99.90;;;;;;5046294;28;20435;-57
2021/03/08 00:03:29;;;;;;;16.02;9.02;;;10.20;99.90;;;;;;5045681;28;20403;-57
2021/03/08 00:05:56;;;;;;;14.23;8.65;;;10.20;99.90;;;;;;5045424;28;20036;-57
2021/03/08 00:08:22;;;;;;;14.88;8.30;;;10.10;99.90;;;;;;5045838;28;20431;-57
2021/03/08 00:10:48;;;;;;;17.08;9.32;;;10.00;99.90;;;;;;5045352;28;20071;-57
2021/03/08 00:13:13;;;;;;;19.08;9.80;;;9.90;99.90;;;;;;5045567;28;20086;-58
2021/03/08 00:15:39;;;;;;;18.75;10.15;;;9.80;99.90;;;;;;5045585;28;20556;-58
2021/03/08 00:18:05;;;;;;;15.18;8.30;;;9.80;99.90;;;;;;5044882;28;20054;-58
2021/03/08 00:20:31;;;;;;;14.50;8.02;;;10.00;99.90;;;;;;5044757;28;20141;-58
2021/03/08 00:22:57;;;;;;;18.80;10.35;;;10.10;99.90;;;;;;5044015;28;20044;-58
2021/03/08 00:25:27;;;;;;;14.10;8.55;;;10.10;99.90;;;;;;5045601;28;20112;-57
2021/03/08 00:27:53;;;;;;;11.20;7.28;;;10.10;99.90;;;;;;5045349;28;20029;-58
2021/03/08 00:30:19;;;;;;;12.80;7.03;;;10.10;99.90;;;;;;5045311;28;20021;-58
2021/03/08 00:32:46;;;;;;;9.27;6.10;;;10.20;99.90;;;;;;5044581;28;20036;-58
2021/03/08 00:35:14;;;;;;;8.60;5.55;;;10.10;99.90;;;;;;5044711;28;20025;-58
2021/03/08 00:37:40;;;;;;;15.35;8.57;;;9.90;99.90;;;;;;5045167;28;20044;-58
2021/03/08 00:40:11;;;;;;;17.45;10.38;;;9.80;99.90;;;;;;5045347;28;20025;-57
2021/03/08 00:42:39;;;;;;;15.60;9.38;;;9.60;99.90;;;;;;5045187;28;20074;-57
2021/03/08 00:45:18;;;;;;;19.52;11.18;;;9.50;99.90;;;;;;5045365;28;20110;-57
2021/03/08 00:47:45;;;;;;;16.20;9.88;;;9.50;99.90;;;;;;5045023;28;20048;-58
2021/03/08 00:50:16;;;;;;;19.05;11.15;;;9.60;99.90;;;;;;5044945;28;20021;-58
2021/03/08 00:52:43;;;;;;;15.77;9.93;;;9.50;99.90;;;;;;5044596;28;20366;-58
2021/03/08 00:55:10;;;;;;;22.13;13.00;;;9.60;99.90;;;;;;5044650;28;20079;-58
2021/03/08 00:57:36;;;;;;;19.52;11.13;;;9.40;99.90;;;;;;5045536;28;20100;-57
2021/03/08 01:00:03;;;;;;;15.52;9.80;;;9.40;99.90;;;;;;5043239;28;20108;-58
2021/03/08 01:02:29;;;;;;;18.23;10.40;;;9.40;99.90;;;;;;5045161;28;20131;-58
2021/03/08 01:04:55;;;;;;;23.52;12.82;;;9.40;99.90;;;;;;5042764;28;20095;-58
2021/03/08 01:07:21;;;;;;;25.05;12.18;;;9.30;99.90;;;;;;5044772;28;20029;-58
2021/03/08 01:09:46;;;;;;;19.33;10.45;;;9.40;99.90;;;;;;5045087;28;20040;-58
2021/03/08 01:12:13;;;;;;;22.88;10.98;;;9.40;99.90;;;;;;5044606;28;20033;-58
2021/03/08 01:14:39;;;;;;;22.48;11.63;;;9.30;99.90;;;;;;5044108;28;20501;-58
2021/03/08 01:17:05;;;;;;;18.65;10.50;;;9.30;99.90;;;;;;5044064;28;20040;-58
2021/03/08 01:19:31;;;;;;;16.00;8.95;;;9.20;99.90;;;;;;5044539;28;20040;-57
2021/03/08 01:21:56;;;;;;;20.50;9.52;;;9.40;99.90;;;;;;5044484;28;20032;-58
2021/03/08 01:24:22;;;;;;;17.40;9.60;;;9.50;99.90;;;;;;5044666;28;20376;-58
2021/03/08 01:26:47;;;;;;;15.43;8.85;;;9.50;99.90;;;;;;5045336;28;20043;-58
2021/03/08 01:29:14;;;;;;;18.08;8.57;;;9.50;99.90;;;;;;5044413;28;20029;-58
2021/03/08 01:31:40;;;;;;;16.58;9.30;;;9.60;99.90;;;;;;5044531;28;20021;-58
2021/03/08 01:34:06;;;;;;;19.27;10.27;;;9.60;99.90;;;;;;5043866;28;20269;-58
2021/03/08 01:36:31;;;;;;;19.80;9.65;;;9.80;99.90;;;;;;5043525;28;20127;-58
2021/03/08 01:38:57;;;;;;;23.27;10.82;;;9.70;99.90;;;;;;5044308;28;20029;-58
2021/03/08 01:41:24;;;;;;;19.63;10.50;;;9.90;99.90;;;;;;5044295;28;20072;-58
2021/03/08 01:43:49;;;;;;;20.45;10.52;;;9.70;99.90;;;;;;5047782;28;20113;-58
2021/03/08 01:46:15;;;;;;;24.15;12.13;;;9.80;99.90;;;;;;5048304;28;20100;-58
2021/03/08 01:48:40;;;;;;;20.10;10.13;;;9.70;99.90;;;;;;5048615;28;20028;-58
2021/03/08 01:51:07;;;;;;;22.00;11.10;;;9.60;99.90;;;;;;5048112;28;20060;-58
2021/03/08 01:53:35;;;;;;;20.10;10.85;;;9.70;99.90;;;;;;5047949;28;20032;-58
2021/03/08 01:56:02;;;;;;;16.17;9.20;;;9.80;99.90;;;;;;5048207;28;20029;-58
2021/03/08 01:58:28;;;;;;;16.65;9.18;;;9.80;99.90;;;;;;5048429;28;20043;-58
2021/03/08 02:00:55;;;;;;;17.58;8.52;;;9.80;99.90;;;;;;5047887;28;20040;-58
2021/03/08 02:03:20;;;;;;;15.98;9.32;;;9.80;99.90;;;;;;5048450;28;20127;-58
2021/03/08 02:05:47;;;;;;;13.35;8.82;;;9.90;99.90;;;;;;5048816;28;20104;-57
2021/03/08 02:08:16;;;;;;;17.10;8.70;;;9.90;99.90;;;;;;5047947;28;20395;-58
2021/03/08 02:10:43;;;;;;;14.95;8.27;;;9.90;99.90;;;;;;5047981;28;20102;-58
2021/03/08 02:13:24;;;;;;;13.98;7.68;;;9.90;99.90;;;;;;5047982;28;20104;-58
2021/03/08 02:16:26;;;;;;;11.88;7.38;;;9.90;99.90;;;;;;5047295;28;20577;-58
2021/03/08 02:19:19;;;;;;;15.63;8.82;;;9.80;99.90;;;;;;5047430;28;20032;-58
2021/03/08 02:22:23;;;;;;;16.05;8.73;;;9.70;99.90;;;;;;5047793;28;20033;-58
2021/03/08 02:25:19;;;;;;;16.75;9.38;;;9.80;99.90;;;;;;5048620;28;20037;-58
2021/03/08 02:28:28;;;;;;;23.38;12.68;;;9.80;99.90;;;;;;5047897;28;20083;-58
2021/03/08 02:30:59;;;;;;;18.65;10.88;;;9.80;99.90;;;;;;5047426;28;20086;-58
2021/03/08 02:33:29;;;;;;;17.02;9.00;;;9.80;99.90;;;;;;5047597;28;20462;-58
2021/03/08 02:35:58;;;;;;;13.32;8.07;;;9.80;99.90;;;;;;5047397;28;20108;-58
2021/03/08 02:38:29;;;;;;;13.40;8.10;;;9.70;99.90;;;;;;5047838;28;20020;-58
2021/03/08 02:41:05;;;;;;;14.20;9.07;;;9.70;99.90;;;;;;5047033;28;20072;-58
2021/03/08 02:43:43;;;;;;;14.57;8.50;;;9.70;99.90;;;;;;5046309;28;20621;-58
2021/03/08 02:46:25;;;;;;;12.52;8.15;;;9.60;99.90;;;;;;5047212;28;20586;-58
2021/03/08 02:48:51;;;;;;;11.10;7.05;;;9.80;99.90;;;;;;5047676;28;20021;-58
2021/03/08 02:51:21;;;;;;;13.07;8.48;;;9.80;99.90;;;;;;5048266;28;20028;-58
2021/03/08 02:53:50;;;;;;;13.93;8.15;;;9.80;99.90;;;;;;5046898;28;20458;-58
2021/03/08 02:56:19;;;;;;;16.10;9.35;;;9.80;99.90;;;;;;5045277;28;20438;-58
2021/03/08 02:58:48;;;;;;;14.32;9.30;;;9.80;99.90;;;;;;5047307;28;20028;-57
2021/03/08 03:01:17;;;;;;;11.27;7.45;;;9.90;99.90;;;;;;5046537;28;20124;-57
2021/03/08 03:03:45;;;;;;;14.63;8.35;;;9.80;99.90;;;;;;5045653;28;20331;-58
2021/03/08 03:06:12;;;;;;;15.13;8.75;;;9.80;99.90;;;;;;5046965;28;20025;-57
2021/03/08 03:08:39;;;;;;;14.38;8.75;;;9.80;99.90;;;;;;5046978;28;20068;-58
2021/03/08 03:11:08;;;;;;;18.13;9.63;;;9.80;99.90;;;;;;5047036;28;20044;-57
2021/03/08 03:13:38;;;;;;;16.75;9.82;;;9.80;99.90;;;;;;5046089;28;20028;-58
2021/03/08 03:16:06;;;;;;;20.20;9.77;;;9.70;99.90;;;;;;5047034;28;20033;-57
2021/03/08 03:18:34;;;;;;;18.33;10.07;;;9.60;99.90;;;;;;5047304;28;20025;-58
2021/03/08 03:21:03;;;;;;;19.98;9.68;;;9.70;99.90;;;;;;5047203;28;20075;-58
2021/03/08 03:23:30;;;;;;;16.98;9.60;;;9.70;99.90;;;;;;5046934;28;20032;-58
2021/03/08 03:25:59;;;;;;;15.93;8.52;;;9.60;99.90;;;;;;5046312;28;20556;-58
2021/03/08 03:28:25;;;;;;;14.40;8.05;;;9.60;99.90;;;;;;5045332;28;20462;-58
2021/03/08 03:30:51;;;;;;;14.80;8.00;;;9.60;99.90;;;;;;5046214;28;20033;-58
2021/03/08 03:33:18;;;;;;;15.48;8.63;;;9.70;99.90;;;;;;5045253;28;20078;-58
2021/03/08 03:35:44;;;;;;;14.40;8.32;;;9.60;99.90;;;;;;5046345;28;20033;-58
2021/03/08 03:38:11;;;;;;;14.30;7.43;;;9.60;99.90;;;;;;5046272;28;20104;-58
2021/03/08 03:40:37;;;;;;;14.05;7.70;;;9.50;99.90;;;;;;5046395;28;20031;-58
2021/03/08 03:43:04;;;;;;;12.77;7.93;;;9.50;99.90;;;;;;5046625;28;20104;-58
2021/03/08 03:45:30;;;;;;;14.27;7.80;;;9.50;99.90;;;;;;5046853;28;20017;-58
2021/03/08 03:47:56;;;;;;;14.40;8.27;;;9.40;99.90;;;;;;5045662;28;20395;-58
2021/03/08 03:50:24;;;;;;;11.45;7.32;;;9.10;99.90;;;;;;5046551;28;20017;-58
2021/03/08 03:52:49;;;;;;;14.25;7.70;;;9.10;99.90;;;;;;5045833;28;20538;-58
2021/03/08 03:55:18;;;;;;;12.55;8.07;;;9.20;99.90;;;;;;5046233;28;20029;-57
2021/03/08 03:58:05;;;;;;;16.60;8.32;;;9.40;99.90;;;;;;5046179;28;20051;-58
2021/03/08 04:00:38;;;;;;;19.17;10.07;;;9.30;99.90;;;;;;5046840;28;20021;-58
2021/03/08 04:03:10;;;;;;;20.40;10.35;;;9.30;99.90;;;;;;5045779;28;20028;-58
2021/03/08 04:05:38;;;;;;;19.70;10.60;;;9.10;99.90;;;;;;5045771;28;20025;-58
2021/03/08 04:08:06;;;;;;;20.42;10.77;;;9.10;99.90;;;;;;5046035;28;20215;-58
2021/03/08 04:10:33;;;;;;;18.95;9.98;;;9.10;99.90;;;;;;5046191;28;20067;-57
2021/03/08 04:13:03;;;;;;;22.33;10.82;;;9.20;99.90;;;;;;5045460;28;20040;-58
2021/03/08 04:15:31;;;;;;;18.83;9.98;;;9.30;99.90;;;;;;5046010;28;20112;-58
2021/03/08 04:17:58;;;;;;;18.88;10.10;;;9.40;99.90;;;;;;5045433;28;20506;-58
2021/03/08 04:20:27;;;;;;;17.55;9.45;;;9.30;99.90;;;;;;5045536;28;20404;-58
2021/03/08 04:22:55;;;;;;;15.93;8.43;;;9.30;99.90;;;;;;5045306;28;20032;-58
2021/03/08 04:25:22;;;;;;;20.48;10.07;;;9.10;99.90;;;;;;5045675;28;20115;-58
2021/03/08 04:27:50;;;;;;;21.55;10.27;;;9.00;99.90;;;;;;5044946;28;20020;-58
2021/03/08 04:30:17;;;;;;;22.58;11.05;;;8.90;99.90;;;;;;5044696;28;20063;-58
2021/03/08 04:32:47;;;;;;;22.90;11.73;;;9.10;99.90;;;;;;5045789;28;20029;-58
2021/03/08 04:35:13;;;;;;;23.10;11.35;;;9.20;99.90;;;;;;5046160;28;20108;-58
2021/03/08 04:37:40;;;;;;;18.05;10.20;;;9.40;99.90;;;;;;5041632;28;20117;-58
2021/03/08 04:40:08;;;;;;;19.38;10.32;;;9.50;99.90;;;;;;5045684;28;20041;-57
2021/03/08 04:42:35;;;;;;;15.52;9.23;;;9.40;99.90;;;;;;5046866;28;20039;-57
2021/03/08 04:45:01;;;;;;;15.07;8.88;;;9.30;99.90;;;;;;5047019;28;20360;-58
2021/03/08 04:47:28;;;;;;;17.30;8.43;;;9.40;99.90;;;;;;5046990;28;20029;-58
2021/03/08 04:49:54;;;;;;;21.08;10.63;;;9.30;99.90;;;;;;5047028;28;20065;-58
2021/03/08 04:52:22;;;;;;;19.60;10.95;;;9.20;99.90;;;;;;5046583;28;20044;-58
2021/03/08 04:54:49;;;;;;;17.40;10.15;;;9.10;99.90;;;;;;5047306;28;20074;-58
2021/03/08 04:57:21;;;;;;;15.60;9.90;;;8.70;99.90;;;;;;5045451;28;20398;-58
2021/03/08 04:59:51;;;;;;;22.42;12.68;;;8.60;99.90;;;;;;5045312;28;20032;-58
2021/03/08 05:02:20;;;;;;;18.35;10.93;;;8.50;99.90;;;;;;5044669;28;20029;-58
2021/03/08 05:04:49;;;;;;;17.42;10.73;;;8.70;99.90;;;;;;5044401;28;20025;-58
2021/03/08 05:07:21;;;;;;;19.58;10.23;;;8.60;99.90;;;;;;5042442;28;20051;-58
2021/03/08 05:09:49;;;;;;;16.02;9.57;;;8.50;99.90;;;;;;5039327;28;20119;-58
2021/03/08 05:12:16;;;;;;;19.52;11.63;;;8.60;99.90;;;;;;5043449;28;20029;-58
2021/03/08 05:14:44;;;;;;;16.77;11.35;;;8.40;99.90;;;;;;5043803;28;20112;-58
2021/03/08 05:17:15;;;;;;;21.27;12.43;;;8.20;99.90;;;;;;5043552;28;20025;-58
2021/03/08 05:19:42;;;;;;;16.73;10.77;;;8.10;99.90;;;;;;5044662;28;20407;-58
2021/03/08 05:22:10;;;;;;;18.08;10.85;;;8.00;99.90;;;;;;5044492;28;20458;-58
2021/03/08 05:24:37;;;;;;;14.85;9.68;;;8.00;99.90;;;;;;5044345;28;20104;-58
2021/03/08 05:27:08;;;;;;;17.25;9.70;;;8.00;99.90;;;;;;5044954;28;20025;-58
2021/03/08 05:29:38;;;;;;;16.50;9.07;;;7.80;99.90;;;;;;5044461;28;20525;-58
2021/03/08 05:32:07;;;;;;;13.10;8.02;;;8.10;99.90;;;;;;5044451;28;20033;-58
2021/03/08 05:34:34;;;;;;;12.85;7.95;;;8.10;99.90;;;;;;5045679;28;20534;-57
2021/03/08 05:37:00;;;;;;;11.65;7.90;;;8.10;99.90;;;;;;5045732;28;20032;-57
2021/03/08 05:39:27;;;;;;;10.95;7.32;;;8.20;99.90;;;;;;5044991;28;20391;-57
2021/03/08 05:42:10;;;;;;;11.23;7.70;;;8.20;99.90;;;;;;5043304;28;20027;-58
2021/03/08 05:45:08;;;;;;;11.23;7.63;;;8.20;99.90;;;;;;5044270;28;20031;-58
2021/03/08 05:47:35;;;;;;;11.20;7.05;;;8.20;99.90;;;;;;5044639;28;20037;-58
2021/03/08 05:50:29;;;;;;;12.52;7.85;;;8.20;99.90;;;;;;5044779;28;20017;-58
2021/03/08 05:53:10;;;;;;;11.75;7.85;;;8.10;99.90;;;;;;5044179;28;20123;-58
2021/03/08 05:56:13;;;;;;;12.38;7.60;;;8.00;99.90;;;;;;5044343;28;20021;-58
2021/03/08 05:59:02;;;;;;;10.63;7.10;;;8.10;99.90;;;;;;5044154;28;20061;-57
2021/03/08 06:01:58;;;;;;;10.82;7.35;;;8.10;99.90;;;;;;5043960;28;20024;-58
2021/03/08 06:04:33;;;;;;;13.63;7.82;;;8.10;99.90;;;;;;5044235;28;20025;-58
2021/03/08 06:07:36;;;;;;;10.05;7.10;;;8.00;99.90;;;;;;5044565;28;20052;-57
2021/03/08 06:10:08;;;;;;;13.38;7.60;;;8.00;99.90;;;;;;5043731;28;20029;-58
2021/03/08 06:12:36;;;;;;;13.32;6.93;;;8.00;99.90;;;;;;5043833;28;20511;-58
2021/03/08 06:15:10;;;;;;;9.98;6.70;;;8.00;99.90;;;;;;5043995;28;20025;-57
2021/03/08 06:17:39;;;;;;;10.85;6.57;;;8.00;99.90;;;;;;5044035;28;20396;-58
2021/03/08 06:20:08;;;;;;;10.20;7.03;;;7.90;99.90;;;;;;5043900;28;20033;-58
2021/03/08 06:22:35;;;;;;;11.30;7.80;;;8.00;99.90;;;;;;5044634;28;20535;-58
2021/03/08 06:25:02;;;;;;;11.15;7.47;;;8.00;99.90;;;;;;5044543;28;20083;-58
2021/03/08 06:27:29;;;;;;;11.82;7.93;;;8.20;99.90;;;;;;5043797;28;20025;-58
2021/03/08 06:29:57;;;;;;;12.55;8.32;;;8.20;99.90;;;;;;5046109;28;20072;-58
2021/03/08 06:32:23;;;;;;;10.25;7.20;;;8.20;99.90;;;;;;5047712;28;20021;-58
2021/03/08 06:34:50;;;;;;;11.63;7.32;;;8.10;99.90;;;;;;5048026;28;20458;-58
2021/03/08 06:37:19;;;;;;;10.90;7.10;;;8.00;99.90;;;;;;5047591;28;20598;-59
2021/03/08 06:39:47;;;;;;;10.38;6.68;;;8.00;99.90;;;;;;5047691;28;20028;-58
2021/03/08 06:42:15;;;;;;;11.05;6.60;;;8.00;99.90;;;;;;5047388;28;20028;-58
2021/03/08 06:44:41;;;;;;;15.70;7.57;;;7.90;99.90;;;;;;5047613;28;20410;-58
2021/03/08 06:47:09;;;;;;;10.88;7.30;;;7.90;99.90;;;;;;5047428;28;20517;-58
2021/03/08 06:49:35;;;;;;;11.80;6.25;;;7.80;99.90;;;;;;5047248;28;20513;-59
2021/03/08 06:52:13;;;;;;;10.07;6.80;;;7.90;99.90;;;;;;5047717;28;20103;-58
2021/03/08 06:54:44;;;;;;;11.07;6.95;;;7.90;99.90;;;;;;5047191;28;20112;-58
2021/03/08 06:57:21;;;;;;;9.18;6.32;;;7.80;99.90;;;;;;5046042;28;20055;-58
2021/03/08 06:59:55;;;;;;;10.02;6.22;;;7.70;99.90;;;;;;5048872;28;20031;-58
2021/03/08 07:02:22;;;;;;;8.82;5.80;;;7.70;99.90;;;;;;5046138;28;20453;-59
2021/03/08 07:04:49;;;;;;;9.15;6.00;;;7.70;99.90;;;;;;5046988;28;20040;-58
2021/03/08 07:07:16;;;;;;;11.00;6.40;;;7.70;99.90;;;;;;5046745;28;20407;-58
2021/03/08 07:09:52;;;;;;;16.70;10.00;;;7.60;99.90;;;;;;5046173;28;20031;-59
2021/03/08 07:12:19;;;;;;;18.75;10.90;;;7.50;99.90;;;;;;5046048;28;20032;-58
2021/03/08 07:14:46;;;;;;;22.73;11.85;;;7.40;99.90;;;;;;5046704;28;20025;-59
2021/03/08 07:17:32;;;;;;;20.30;11.30;;;7.30;99.90;;;;;;5047316;28;20032;-58
2021/03/08 07:20:00;;;;;;;18.92;10.52;;;7.40;99.90;;;;;;5048197;28;20024;-58
2021/03/08 07:22:49;;;;;;;22.95;11.48;;;7.50;99.90;;;;;;5047494;28;20078;-58
2021/03/08 07:25:16;;;;;;;18.67;9.98;;;7.50;99.90;;;;;;5047461;28;20049;-59
2021/03/08 07:27:47;;;;;;;18.27;10.13;;;7.60;99.90;;;;;;5048150;28;20091;-58
2021/03/08 07:30:14;;;;;;;17.70;9.60;;;7.50;99.90;;;;;;5046868;28;20025;-58
2021/03/08 07:33:10;;;;;;;16.23;9.20;;;7.40;99.90;;;;;;5048220;28;20414;-58
2021/03/08 07:35:36;;;;;;;15.20;8.63;;;7.50;99.90;;;;;;5047762;28;20414;-58
2021/03/08 07:38:02;;;;;;;13.57;8.07;;;7.50;99.90;;;;;;5047104;28;20025;-59
2021/03/08 07:40:28;;;;;;;14.40;8.60;;;7.50;99.90;;;;;;5047382;28;20025;-58
2021/03/08 07:42:54;;;;;;;18.08;9.63;;;7.60;99.90;;;;;;5047844;28;20047;-58
2021/03/08 07:45:23;;;;;;;19.55;11.10;;;7.50;99.90;;;;;;5047048;28;20021;-58
2021/03/08 07:48:08;;;;;;;15.15;8.30;;;7.30;99.90;;;;;;5047352;28;20021;-58
2021/03/08 07:50:34;;;;;;;15.25;8.30;;;7.50;99.90;;;;;;5047854;28;20060;-58
2021/03/08 07:53:00;;;;;;;10.70;6.43;;;7.60;99.90;;;;;;5048303;28;20070;-59
2021/03/08 07:55:36;;;;;;;13.52;7.13;;;7.60;99.90;;;;;;5047774;28;20048;-58
2021/03/08 07:58:03;;;;;;;11.60;7.20;;;7.70;99.90;;;;;;5046392;28;20032;-58
2021/03/08 08:00:30;;;;;;;11.73;6.97;;;7.70;99.90;;;;;;5046789;28;20120;-59
2021/03/08 08:03:00;;;;;;;10.77;6.55;;;7.70;99.90;;;;;;5047045;28;20537;-59
2021/03/08 08:05:26;;;;;;;11.40;6.60;;;7.80;99.90;;;;;;5045363;28;20020;-59
2021/03/08 08:07:55;;;;;;;13.43;8.00;;;7.70;99.90;;;;;;5045605;28;20051;-59
2021/03/08 08:10:22;;;;;;;15.70;9.55;;;7.70;99.90;;;;;;5045279;28;20094;-59
2021/03/08 08:12:48;;;;;;;13.43;8.13;;;7.60;99.90;;;;;;5045719;28;20021;-59
2021/03/08 08:15:18;;;;;;;14.20;8.73;;;7.60;99.90;;;;;;5045347;28;20029;-59
2021/03/08 08:17:47;;;;;;;14.23;8.60;;;7.60;99.90;;;;;;5044026;28;20056;-59
2021/03/08 08:20:14;;;;;;;15.07;9.02;;;7.60;99.90;;;;;;5045170;28;20068;-59
2021/03/08 08:22:49;;;;;;;17.98;10.55;;;7.60;99.90;;;;;;5044418;28;20119;-59
2021/03/08 08:25:16;;;;;;;16.20;9.95;;;7.60;99.90;;;;;;5047244;28;20319;-58
2021/03/08 08:27:42;;;;;;;17.08;10.55;;;7.70;99.90;;;;;;5047150;28;20056;-58
2021/03/08 08:30:08;;;;;;;19.63;11.73;;;7.70;99.90;;;;;;5046559;28;20025;-59
2021/03/08 08:32:51;;;;;;;14.60;9.50;;;7.70;99.90;;;;;;5045408;28;20029;-59
2021/03/08 08:35:22;;;;;;;15.57;9.93;;;7.70;99.90;;;;;;5046855;28;20048;-58
2021/03/08 08:38:06;;;;;;;18.38;11.52;;;7.60;99.90;;;;;;5046999;28;20040;-58
2021/03/08 08:40:36;;;;;;;15.25;9.13;;;7.50;99.90;;;;;;5045644;28;20025;-58
2021/03/08 08:43:14;;;;;;;13.68;8.55;;;7.80;99.90;;;;;;5046843;28;20121;-58
2021/03/08 08:45:43;;;;;;;15.60;8.75;;;7.90;99.90;;;;;;5044158;28;20035;-59
2021/03/08 08:48:10;;;;;;;17.50;9.60;;;7.90;99.90;;;;;;5043766;28;20498;-58
2021/03/08 08:50:52;;;;;;;12.98;7.72;;;8.00;99.90;;;;;;5044916;28;20062;-58
2021/03/08 08:53:39;;;;;;;16.38;10.57;;;8.00;99.90;;;;;;5043817;28;20033;-58
2021/03/08 08:56:05;;;;;;;14.38;8.95;;;7.90;99.90;;;;;;5043896;28;20087;-59
2021/03/08 08:58:46;;;;;;;13.07;7.97;;;8.10;99.90;;;;;;5045684;28;20036;-58
2021/03/08 09:04:05;;;;;;;11.85;7.35;;;8.30;99.90;;;;;;5046339;28;20033;-58
2021/03/08 09:06:45;;;;;;;15.60;9.07;;;8.40;99.90;;;;;;5046028;28;20399;-58
2021/03/08 09:09:22;;;;;;;16.02;9.05;;;8.40;99.90;;;;;;5044262;28;20025;-58
2021/03/08 09:12:01;;;;;;;12.60;7.65;;;8.30;99.90;;;;;;5044338;28;20032;-58
2021/03/08 09:14:30;;;;;;;11.48;7.03;;;8.50;99.90;;;;;;5045016;28;20036;-58
2021/03/08 09:17:14;;;;;;;11.90;7.05;;;8.70;99.90;;;;;;5044125;28;20564;-58
2021/03/08 09:19:42;;;;;;;12.63;8.50;;;8.80;99.90;;;;;;5044623;28;20033;-58
2021/03/08 09:22:23;;;;;;;11.80;7.38;;;8.50;99.90;;;;;;5044583;28;20132;-58
2021/03/08 09:24:50;;;;;;;14.07;8.90;;;8.90;99.90;;;;;;5044666;28;20021;-58
2021/03/08 09:27:25;;;;;;;11.98;7.72;;;8.60;99.90;;;;;;5044551;28;20483;-58
2021/03/08 09:29:52;;;;;;;;;;;8.80;99.90;;;;;;5044976;28;20364;-58
2021/03/08 09:32:18;;;;;;;16.70;9.20;;;8.70;99.90;;;;;;5044655;28;19927;-58
2021/03/08 09:34:44;;;;;;;20.98;10.30;;;8.70;99.90;;;;;;5044472;28;20036;-58
2021/03/08 09:37:10;;;;;;;25.08;11.45;;;8.70;99.90;;;;;;5044538;28;20033;-58
2021/03/08 09:39:53;;;;;;;18.25;9.98;;;8.90;99.90;;;;;;5044161;28;20079;-58
2021/03/08 09:42:19;;;;;;;21.17;11.30;;;8.80;99.90;;;;;;5044480;28;20108;-58
2021/03/08 09:44:46;;;;;;;17.63;10.50;;;8.80;99.90;;;;;;5044447;28;20104;-58
2021/03/08 09:47:13;;;;;;;17.63;10.43;;;8.80;99.90;;;;;;5042302;28;20116;-58
2021/03/08 09:49:52;;;;;;;14.60;8.93;;;8.80;99.90;;;;;;5043363;28;20021;-58
2021/03/08 09:52:39;;;;;;;12.98;8.05;;;9.00;99.90;;;;;;5041751;28;20514;-58
2021/03/08 09:55:08;;;;;;;11.68;7.95;;;8.90;99.90;;;;;;5033604;28;20029;-58
2021/03/08 09:57:38;;;;;;;25.15;12.82;;;9.10;99.90;;;;;;5044730;28;20035;-58
2021/03/08 10:00:09;;;;;;;23.15;12.00;;;9.10;99.90;;;;;;5043992;28;20027;-59
2021/03/08 10:02:37;;;;;;;18.65;10.27;;;9.10;99.90;;;;;;5043233;28;20586;-59
2021/03/08 10:05:05;;;;;;;17.23;9.38;;;9.10;99.90;;;;;;5046477;28;20439;-58
2021/03/08 10:07:32;;;;;;;14.48;8.73;;;9.20;99.90;;;;;;5047446;28;20017;-59
2021/03/08 10:10:18;;;;;;;15.73;9.20;;;9.30;99.90;;;;;;5046679;28;20041;-59
2021/03/08 10:12:43;;;;;;;14.82;7.45;;;9.20;99.90;;;;;;5046071;28;20041;-59
2021/03/08 10:15:11;;;;;;;24.65;12.27;;;9.40;99.90;;;;;;5047116;28;20029;-59
2021/03/08 10:17:53;;;;;;;21.73;11.73;;;9.20;99.90;;;;;;5046700;28;20025;-59
2021/03/08 10:20:19;;;;;;;21.70;11.27;;;9.30;99.90;;;;;;5042852;28;20029;-59
2021/03/08 10:22:44;;;;;;;18.90;10.73;;;9.50;99.90;;;;;;5046670;28;20094;-59
2021/03/08 10:25:19;;;;;;;16.05;9.73;;;9.70;99.90;;;;;;5046962;28;20269;-59
2021/03/08 10:27:50;;;;;;;16.38;9.25;;;9.70;99.90;;;;;;5046938;28;20017;-59
2021/03/08 10:30:16;;;;;;;11.68;7.70;;;9.70;99.90;;;;;;5047240;28;20035;-59
2021/03/08 10:32:43;;;;;;;10.80;7.20;;;10.00;99.90;;;;;;5046405;28;20079;-59
2021/03/08 10:35:10;;;;;;;12.80;8.30;;;10.00;99.90;;;;;;5046977;28;20017;-59
2021/03/08 10:37:37;;;;;;;12.60;7.88;;;10.00;99.90;;;;;;5046816;28;20325;-59
2021/03/08 10:40:04;;;;;;;11.18;7.03;;;10.20;99.90;;;;;;5047410;28;20104;-59
2021/03/08 10:42:31;;;;;;;13.15;8.18;;;10.00;99.90;;;;;;5047435;28;20028;-58
2021/03/08 10:44:57;;;;;;;12.27;7.70;;;9.80;99.90;;;;;;5046312;28;20025;-59
2021/03/08 10:47:23;;;;;;;11.32;7.20;;;9.90;99.90;;;;;;5046729;28;20317;-59
2021/03/08 10:49:53;;;;;;;11.15;7.20;;;10.10;99.90;;;;;;5045682;28;20033;-59
2021/03/08 10:52:20;;;;;;;9.85;6.07;;;10.30;99.90;;;;;;5045593;28;20025;-59
2021/03/08 10:54:47;;;;;;;12.43;8.65;;;10.30;99.90;;;;;;5045311;28;20297;-58
2021/03/08 10:57:14;;;;;;;11.88;8.10;;;10.00;99.90;;;;;;5046872;28;20045;-58
2021/03/08 10:59:48;;;;;;;9.48;6.18;;;10.10;99.90;;;;;;5043939;28;20537;-59
2021/03/08 11:02:16;;;;;;;8.45;5.75;;;10.40;99.90;;;;;;5045753;28;20083;-58
2021/03/08 11:05:10;;;;;;;8.82;5.90;;;10.70;99.90;;;;;;5044676;28;20041;-59
2021/03/08 11:07:36;;;;;;;8.93;5.67;;;10.70;99.90;;;;;;5046244;28;20055;-59
2021/03/08 11:10:04;;;;;;;6.75;4.75;;;10.80;99.90;;;;;;5046508;28;20033;-59
2021/03/08 11:12:29;;;;;;;5.82;4.30;;;11.00;99.90;;;;;;5045690;28;20499;-59
2021/03/08 11:14:57;;;;;;;8.50;5.38;;;11.00;99.90;;;;;;5044492;28;20056;-59
2021/03/08 11:17:41;;;;;;;6.65;4.47;;;11.20;99.90;;;;;;5045952;28;20021;-59
2021/03/08 11:20:12;;;;;;;8.02;5.80;;;11.30;99.90;;;;;;5046409;28;20025;-59
2021/03/08 11:22:49;;;;;;;7.57;5.18;;;11.20;99.90;;;;;;5046120;28;20399;-59
2021/03/08 11:25:25;;;;;;;8.02;5.28;;;11.30;99.90;;;;;;5046054;28;20135;-59
2021/03/08 11:27:52;;;;;;;9.57;5.57;;;11.40;99.90;;;;;;5045712;28;20017;-59
2021/03/08 11:30:18;;;;;;;7.28;5.18;;;11.40;99.90;;;;;;5044543;28;20116;-59
2021/03/08 11:32:55;;;;;;;8.38;5.43;;;11.40;99.90;;;;;;5045274;28;20051;-59
2021/03/08 11:35:28;;;;;;;6.28;4.68;;;11.40;99.90;;;;;;5045038;28;20021;-59
2021/03/08 11:38:04;;;;;;;10.40;5.50;;;11.30;99.90;;;;;;5045537;28;20128;-59
2021/03/08 11:40:30;;;;;;;8.25;5.50;;;11.20;99.90;;;;;;5046398;28;20029;-59
2021/03/08 11:42:57;;;;;;;6.65;4.90;;;11.40;99.90;;;;;;5042586;28;20023;-59
2021/03/08 11:45:24;;;;;;;13.38;8.13;;;11.50;99.90;;;;;;5046261;28;20021;-59
2021/03/08 11:47:54;;;;;;;10.52;6.85;;;11.10;99.90;;;;;;5045937;28;20021;-59
2021/03/08 11:50:22;;;;;;;10.90;6.82;;;11.20;99.90;;;;;;5045968;28;20337;-59
2021/03/08 11:52:49;;;;;;;7.28;5.05;;;11.20;99.90;;;;;;5044581;28;20025;-59
2021/03/08 11:55:16;;;;;;;6.75;4.88;;;11.50;99.90;;;;;;5045435;28;20454;-59
2021/03/08 11:57:46;;;;;;;8.48;5.00;;;11.50;99.90;;;;;;5045136;28;20175;-59
2021/03/08 12:00:17;;;;;;;8.07;5.00;;;11.80;99.90;;;;;;5033674;28;20025;-60
2021/03/08 12:02:43;;;;;;;8.52;5.40;;;12.00;99.90;;;;;;5031535;28;20021;-59
2021/03/08 12:05:09;;;;;;;9.50;7.05;;;12.00;99.90;;;;;;5054481;28;20028;-59
2021/03/08 12:07:37;;;;;;;11.00;7.75;;;11.70;99.90;;;;;;5065808;28;20090;-59
2021/03/08 12:10:04;;;;;;;11.23;7.60;;;11.60;99.90;;;;;;5050626;28;20036;-59
2021/03/08 12:12:29;;;;;;;8.88;6.57;;;11.60;99.90;;;;;;5045259;28;20052;-59
2021/03/08 12:14:56;;;;;;;12.07;7.90;;;11.70;99.90;;;;;;5044266;28;20060;-59
2021/03/08 12:17:22;;;;;;;15.32;9.73;;;11.40;99.90;;;;;;5044054;28;20515;-59
2021/03/08 12:19:48;;;;;;;16.88;9.57;;;11.30;99.90;;;;;;5044002;28;20048;-59
2021/03/08 12:22:13;;;;;;;14.25;8.60;;;11.20;99.90;;;;;;5044554;28;20017;-59
2021/03/08 12:24:40;;;;;;;18.55;12.00;;;11.20;99.90;;;;;;5045301;28;20029;-59
2021/03/08 12:27:06;;;;;;;28.45;14.90;;;11.20;99.90;;;;;;5044620;28;20042;-59
2021/03/08 12:29:32;;;;;;;25.92;13.90;;;11.10;99.90;;;;;;5045682;28;20169;-59
2021/03/08 12:31:58;;;;;;;22.10;12.35;;;11.20;99.90;;;;;;5043939;28;20633;-59
2021/03/08 12:34:24;;;;;;;26.80;12.50;;;11.40;99.90;;;;;;5044197;28;20306;-59
2021/03/08 12:36:51;;;;;;;28.08;15.07;;;11.50;99.90;;;;;;5041250;28;20041;-59
2021/03/08 12:39:18;;;;;;;21.95;13.45;;;11.70;99.90;;;;;;5042609;28;20513;-59
2021/03/08 12:41:46;;;;;;;18.48;10.90;;;11.90;99.90;;;;;;5044324;28;20390;-59
2021/03/08 12:44:12;;;;;;;16.15;9.90;;;12.10;99.90;;;;;;5044426;28;20039;-59
2021/03/08 12:46:39;;;;;;;17.13;11.05;;;12.30;99.90;;;;;;5044685;28;20025;-59
2021/03/08 12:49:05;;;;;;;14.77;9.93;;;12.30;99.90;;;;;;5044830;28;20017;-59
2021/03/08 12:51:30;;;;;;;17.88;11.43;;;12.40;99.90;;;;;;5045114;28;20028;-59
2021/03/08 12:53:56;;;;;;;15.52;10.30;;;12.50;99.90;;;;;;5042677;28;20037;-59
2021/03/08 12:56:22;;;;;;;15.68;9.05;;;12.60;99.90;;;;;;5042128;28;20114;-59
2021/03/08 12:58:48;;;;;;;11.77;8.25;;;12.80;99.90;;;;;;5044423;28;20036;-60
2021/03/08 13:01:15;;;;;;;16.95;11.52;;;13.00;99.90;;;;;;5044506;28;20100;-60